Time;durP1;ratioP1;P1;durP2;ratioP2;P2;SDS_P1;SDS_P2;PMS_P1;PMS_P2;Temp;Humidity;BMP_temperature;BMP_pressure;BME280_temperature;BME280_humidity;BME280_pressure;Samples;Min_cycle;Max_cycle;Signal;HPM_P1;HPM_P2
2023/06/19 00:00:21;;;;;;;7.13;6.43;;;25.00;34.30;;;26.45;29.64;97185.56;5079601;28;20203;-46
2023/06/19 00:02:49;;;;;;;6.78;6.18;;;24.90;34.60;;;26.42;29.53;97182.56;5071445;28;20415;-45
2023/06/19 00:05:17;;;;;;;6.82;6.22;;;24.90;34.90;;;26.38;30.05;97179.56;5079504;28;20032;-45
2023/06/19 00:07:45;;;;;;;7.95;7.15;;;24.80;35.00;;;26.37;30.27;97180.69;5069856;28;20051;-45
2023/06/19 00:10:12;;;;;;;7.88;7.18;;;24.80;35.10;;;26.36;30.01;97170.84;5071271;28;20044;-46
2023/06/19 00:12:40;;;;;;;10.38;6.70;;;24.70;35.30;;;26.36;30.35;97172.75;5070745;28;20044;-48
2023/06/19 00:15:11;;;;;;;9.45;7.35;;;24.70;35.40;;;26.36;30.23;97178.22;5070968;28;20041;-48
2023/06/19 00:17:39;;;;;;;6.78;6.18;;;24.80;35.40;;;26.35;30.60;97180.13;5080916;28;20037;-45
2023/06/19 00:20:07;;;;;;;7.75;6.95;;;24.80;35.40;;;26.33;30.34;97176.88;5082768;28;20047;-46
2023/06/19 00:22:35;;;;;;;7.68;6.97;;;24.80;35.70;;;26.27;30.47;97175.25;5053784;28;20039;-47
2023/06/19 00:25:03;;;;;;;8.65;6.90;;;24.70;35.60;;;26.24;30.54;97175.78;5054396;28;20108;-47
2023/06/19 00:27:30;;;;;;;7.07;6.40;;;24.70;35.70;;;26.22;30.53;97177.97;5078432;28;20045;-45
2023/06/19 00:30:01;;;;;;;7.50;6.68;;;24.70;36.00;;;26.18;30.72;97172.22;5071149;28;20050;-46
2023/06/19 00:32:29;;;;;;;7.68;6.88;;;24.60;35.80;;;26.13;31.02;97175.78;5088673;28;20044;-48
2023/06/19 00:34:57;;;;;;;7.20;6.60;;;24.60;36.10;;;26.06;31.05;97172.50;5085983;28;20503;-45
2023/06/19 00:37:26;;;;;;;7.68;6.97;;;24.60;36.40;;;26.05;30.97;97176.31;5085278;28;20043;-47
2023/06/19 00:39:53;;;;;;;7.00;6.25;;;24.50;36.90;;;26.03;31.12;97173.03;5066940;28;20055;-46
2023/06/19 00:42:21;;;;;;;7.22;6.53;;;24.50;36.50;;;26.02;31.60;97187.78;5086376;28;20067;-49
2023/06/19 00:44:48;;;;;;;8.20;6.13;;;24.50;36.70;;;26.01;31.44;97185.31;5035479;28;20369;-47
2023/06/19 00:47:16;;;;;;;7.97;6.82;;;24.60;36.80;;;26.03;31.47;97185.88;5058776;28;20055;-48
2023/06/19 00:49:44;;;;;;;6.85;6.25;;;24.60;36.90;;;26.05;31.60;97184.50;5059085;28;20052;-49
2023/06/19 00:52:11;;;;;;;7.05;6.43;;;24.60;36.90;;;26.09;31.62;97196.53;5077471;28;20040;-46
2023/06/19 00:54:39;;;;;;;6.97;6.28;;;24.60;36.80;;;26.09;31.98;97222.97;5059543;28;20052;-45
2023/06/19 00:57:07;;;;;;;10.57;6.55;;;24.60;37.00;;;25.87;32.51;97247.72;5059257;28;20488;-44
2023/06/19 00:59:36;;;;;;;7.32;5.15;;;24.60;38.00;;;25.67;33.70;97260.22;5058870;28;20040;-44
2023/06/19 01:02:04;;;;;;;7.63;5.95;;;24.50;39.00;;;25.64;34.04;97257.19;5058905;28;20052;-46
2023/06/19 01:04:32;;;;;;;7.60;5.03;;;24.40;39.60;;;25.61;34.62;97250.38;5076990;28;20041;-49
2023/06/19 01:07:11;;;;;;;7.40;4.57;;;24.30;40.80;;;25.67;33.92;97252.03;5042140;28;20044;-44
2023/06/19 01:09:50;;;;;;;6.50;4.47;;;24.40;40.70;;;25.56;35.35;97263.19;5086431;28;20048;-45
2023/06/19 01:12:27;;;;;;;4.00;3.60;;;24.30;41.40;;;25.45;35.68;97257.66;5060110;28;20527;-44
2023/06/19 01:15:00;;;;;;;4.93;4.25;;;24.20;42.00;;;25.48;34.97;97248.16;5048255;28;20497;-44
2023/06/19 01:17:29;;;;;;;3.92;3.53;;;24.20;41.60;;;25.47;35.16;97243.78;5071409;28;20048;-44
2023/06/19 01:19:59;;;;;;;5.22;3.53;;;24.20;41.10;;;25.39;35.38;97247.84;5066585;28;20039;-45
2023/06/19 01:22:31;;;;;;;5.75;3.80;;;24.10;41.40;;;25.45;35.42;97246.75;5085285;28;20036;-45
2023/06/19 01:25:01;;;;;;;5.60;3.45;;;24.10;41.70;;;25.35;36.21;97244.81;5051596;28;20523;-43
2023/06/19 01:27:31;;;;;;;6.72;4.47;;;24.00;42.80;;;25.37;35.95;97255.47;5057282;28;20055;-44
2023/06/19 01:30:02;;;;;;;4.82;4.43;;;24.10;42.80;;;25.14;37.53;97252.06;5055721;28;20112;-45
2023/06/19 01:32:50;;;;;;;4.78;4.35;;;23.90;44.70;;;25.19;37.35;97258.63;5039145;28;20400;-45
2023/06/19 01:35:23;;;;;;;5.88;5.28;;;24.00;44.50;;;25.17;37.40;97266.25;5076165;28;20052;-47
2023/06/19 01:37:53;;;;;;;5.20;4.70;;;23.90;45.10;;;25.19;37.46;97261.34;5076618;28;20500;-44
2023/06/19 01:40:24;;;;;;;5.75;5.15;;;23.90;45.00;;;25.15;37.72;97261.06;5038894;28;20037;-45
2023/06/19 01:42:55;;;;;;;8.43;5.45;;;23.90;45.20;;;25.13;38.12;97271.41;5059880;28;20028;-44
2023/06/19 01:45:23;;;;;;;6.50;5.00;;;23.80;46.00;;;25.02;38.51;97262.34;5043649;28;20041;-45
2023/06/19 01:47:51;;;;;;;5.80;5.25;;;23.70;46.20;;;25.09;38.59;97271.09;5054957;28;20053;-43
2023/06/19 01:50:19;;;;;;;5.53;5.03;;;23.80;46.80;;;25.01;39.05;97268.88;5055367;28;20055;-46
2023/06/19 01:52:47;;;;;;;6.03;4.93;;;23.70;46.60;;;25.04;38.88;97286.59;5072954;28;20048;-46
2023/06/19 01:55:15;;;;;;;6.70;5.00;;;23.80;46.50;;;24.91;39.44;97277.81;5055410;28;20040;-46
2023/06/19 01:57:43;;;;;;;4.82;4.43;;;23.70;47.20;;;25.02;39.27;97286.03;5054362;28;20048;-47
2023/06/19 02:00:11;;;;;;;4.93;4.43;;;23.70;47.50;;;25.06;39.05;97281.69;5054864;28;20123;-45
2023/06/19 02:02:42;;;;;;;5.60;4.75;;;23.70;47.70;;;25.05;39.18;97270.00;5064517;28;20385;-44
2023/06/19 02:05:13;;;;;;;7.32;4.60;;;23.80;47.50;;;25.07;39.30;97269.72;5061744;28;20060;-47
2023/06/19 02:07:40;;;;;;;5.32;4.82;;;23.70;47.70;;;25.09;39.23;97257.47;5055621;28;20231;-45
2023/06/19 02:10:09;;;;;;;5.47;4.45;;;23.70;47.30;;;25.10;39.26;97256.38;5085102;28;20028;-47
2023/06/19 02:12:36;;;;;;;7.72;4.18;;;23.70;47.80;;;25.14;38.95;97257.53;5066195;28;20166;-46
2023/06/19 02:15:05;;;;;;;4.63;3.90;;;23.70;47.70;;;25.14;39.21;97262.97;5054574;28;20049;-45
2023/06/19 02:17:33;;;;;;;5.75;4.40;;;23.70;47.70;;;25.15;39.04;97264.59;5054226;28;20496;-46
2023/06/19 02:20:00;;;;;;;4.47;3.90;;;23.80;47.20;;;25.20;39.05;97269.22;5046721;28;20051;-45
2023/06/19 02:22:28;;;;;;;4.38;3.95;;;23.80;48.00;;;25.13;39.43;97263.22;5055211;28;20420;-46
2023/06/19 02:24:56;;;;;;;5.22;4.75;;;23.60;47.70;;;25.21;39.13;97259.19;5057211;28;20495;-46
2023/06/19 02:27:24;;;;;;;4.32;3.92;;;23.60;47.50;;;25.22;39.04;97255.34;5058643;28;20056;-47
2023/06/19 02:29:51;;;;;;;4.15;3.75;;;23.60;47.50;;;25.25;38.99;97257.59;5054657;28;20044;-45
2023/06/19 02:32:20;;;;;;;4.13;3.70;;;23.70;47.50;;;25.26;39.02;97254.59;5054518;28;20508;-44
2023/06/19 02:34:48;;;;;;;4.20;3.65;;;23.70;47.40;;;25.24;39.07;97254.06;5054118;28;20053;-44
2023/06/19 02:37:15;;;;;;;4.53;3.38;;;23.70;47.60;;;25.27;39.04;97261.69;5080784;28;20260;-45
2023/06/19 02:39:43;;;;;;;3.58;3.28;;;23.70;47.50;;;25.23;39.20;97262.50;5055270;28;20055;-45
2023/06/19 02:42:10;;;;;;;5.15;3.45;;;23.60;48.00;;;25.24;40.33;97261.38;5060925;28;20416;-45
2023/06/19 02:44:38;;;;;;;4.53;3.03;;;23.70;49.40;;;25.24;39.78;97262.22;5054403;28;20048;-45
2023/06/19 02:47:06;;;;;;;3.20;2.90;;;23.60;49.50;;;25.24;40.60;97269.56;5084089;28;20388;-45
2023/06/19 02:49:34;;;;;;;3.78;3.47;;;23.60;50.80;;;25.22;41.01;97275.28;5084426;28;20043;-44
2023/06/19 02:52:04;;;;;;;4.50;3.63;;;23.60;50.90;;;25.20;40.99;97271.97;5067220;28;20048;-46
2023/06/19 02:54:32;;;;;;;3.85;3.45;;;23.60;50.60;;;25.21;41.22;97279.06;5057853;28;20052;-45
2023/06/19 02:57:00;;;;;;;4.07;3.67;;;23.50;51.60;;;25.20;41.91;97282.84;5083457;28;20048;-44
2023/06/19 02:59:27;;;;;;;4.38;3.20;;;23.40;52.70;;;25.17;41.91;97286.13;5058432;28;20048;-44
2023/06/19 03:01:55;;;;;;;4.20;3.70;;;23.40;52.70;;;25.14;41.93;97294.81;5055982;28;20056;-45
2023/06/19 03:04:23;;;;;;;4.10;3.70;;;23.40;52.60;;;25.12;41.97;97295.06;5059044;28;20044;-44
2023/06/19 03:06:54;;;;;;;4.03;3.63;;;23.40;52.70;;;25.09;42.12;97292.88;5082349;28;20051;-46
2023/06/19 03:09:22;;;;;;;4.30;3.55;;;23.30;53.10;;;25.06;42.17;97298.84;5083693;28;20064;-45
2023/06/19 03:11:50;;;;;;;4.40;3.53;;;23.20;53.10;;;25.03;41.88;97302.13;5056932;28;20393;-44
2023/06/19 03:14:17;;;;;;;4.88;3.90;;;23.20;53.00;;;25.03;41.74;97304.00;5060315;28;20057;-45
2023/06/19 03:16:45;;;;;;;4.63;3.47;;;23.20;52.70;;;25.01;42.02;97311.59;5054238;28;20053;-46
2023/06/19 03:19:13;;;;;;;5.70;3.45;;;23.20;52.80;;;24.99;42.01;97306.44;5060466;28;20495;-44
2023/06/19 03:21:40;;;;;;;3.75;3.15;;;23.20;52.70;;;24.97;42.30;97314.06;5051721;28;20052;-44
2023/06/19 03:24:09;;;;;;;3.75;3.13;;;23.20;53.20;;;24.94;42.11;97318.09;5063444;28;20044;-45
2023/06/19 03:26:38;;;;;;;4.10;3.35;;;23.10;53.00;;;24.91;42.01;97320.53;5057035;28;20045;-44
2023/06/19 03:29:08;;;;;;;5.63;3.65;;;23.10;52.60;;;24.86;41.89;97325.94;5053165;28;20044;-45
2023/06/19 03:31:50;;;;;;;3.40;2.78;;;23.10;52.30;;;24.80;41.41;97324.28;5042680;28;20064;-45
2023/06/19 03:34:19;;;;;;;3.88;3.10;;;23.10;52.10;;;24.72;41.52;97322.84;5065077;28;20048;-44
2023/06/19 03:36:48;;;;;;;3.28;2.75;;;23.00;51.70;;;24.71;41.17;97318.47;5063776;28;20423;-44
2023/06/19 03:39:15;;;;;;;4.50;3.25;;;23.10;51.10;;;24.69;41.13;97321.47;5061167;28;20052;-44
2023/06/19 03:41:44;;;;;;;2.90;2.60;;;23.00;50.80;;;24.67;40.82;97326.34;5052721;28;20051;-45
2023/06/19 03:44:11;;;;;;;2.63;2.28;;;23.10;49.70;;;24.61;40.47;97326.56;5036725;28;20515;-45
2023/06/19 03:46:39;;;;;;;3.78;2.88;;;23.00;49.50;;;24.65;40.11;97327.69;5052692;28;20049;-44
2023/06/19 03:49:09;;;;;;;4.53;3.33;;;23.20;49.00;;;24.68;40.10;97335.31;5036185;28;20060;-44
2023/06/19 03:51:36;;;;;;;2.58;2.22;;;23.20;48.60;;;24.73;39.86;97333.47;5079847;28;20075;-46
2023/06/19 03:54:04;;;;;;;3.03;2.35;;;23.40;48.20;;;24.77;39.98;97334.56;5055745;28;20040;-45
2023/06/19 03:56:32;;;;;;;3.53;2.95;;;23.30;48.40;;;24.79;40.14;97333.50;5050289;28;20385;-45
2023/06/19 03:58:59;;;;;;;3.58;2.75;;;23.30;48.80;;;24.77;40.20;97336.50;5051624;28;20535;-45
2023/06/19 04:01:27;;;;;;;2.83;2.50;;;23.30;49.00;;;24.75;40.26;97346.81;5079661;28;20411;-45
2023/06/19 04:03:54;;;;;;;4.30;2.45;;;23.30;49.00;;;24.76;39.93;97334.88;5053426;28;20397;-46
2023/06/19 04:06:22;;;;;;;3.33;2.88;;;23.30;48.60;;;24.80;39.78;97340.63;5042880;28;20051;-45
2023/06/19 04:08:50;;;;;;;2.85;2.22;;;23.40;48.30;;;24.82;39.78;97346.63;5036591;28;20393;-45
2023/06/19 04:11:18;;;;;;;3.17;2.70;;;23.40;49.10;;;24.84;39.95;97355.34;5060028;28;20526;-44
2023/06/19 04:13:46;;;;;;;2.75;2.33;;;23.40;48.20;;;24.86;39.83;97350.47;5044593;28;20072;-45
2023/06/19 04:16:14;;;;;;;3.03;2.63;;;23.40;48.30;;;24.84;39.80;97348.00;5060474;28;20526;-44
2023/06/19 04:18:42;;;;;;;2.60;2.30;;;23.30;48.30;;;24.83;39.74;97348.25;5052046;28;20079;-45
2023/06/19 04:21:10;;;;;;;3.30;2.53;;;23.30;48.40;;;24.84;39.81;97348.00;5079365;28;20036;-44
2023/06/19 04:23:39;;;;;;;3.33;2.25;;;23.40;48.00;;;24.85;39.58;97351.53;5052614;28;20045;-44
2023/06/19 04:26:06;;;;;;;3.83;2.80;;;23.40;48.10;;;24.88;39.62;97356.47;5054778;28;20434;-44
2023/06/19 04:28:34;;;;;;;2.90;2.50;;;23.40;48.10;;;24.89;39.82;97356.19;5057360;28;20051;-47
2023/06/19 04:31:01;;;;;;;4.75;2.90;;;23.40;48.30;;;24.89;40.02;97356.19;5081081;28;20449;-44
2023/06/19 04:33:29;;;;;;;2.83;2.40;;;23.40;48.70;;;24.91;39.84;97356.75;5054932;28;20060;-44
2023/06/19 04:35:57;;;;;;;3.30;2.78;;;23.40;48.80;;;24.87;40.22;97352.94;5077000;28;20048;-44
2023/06/19 04:38:25;;;;;;;3.30;2.88;;;23.30;49.30;;;24.90;40.34;97354.28;5079112;28;20416;-46
2023/06/19 04:40:53;;;;;;;3.55;2.42;;;23.40;49.50;;;24.91;40.35;97355.91;5079801;28;20049;-46
2023/06/19 04:43:20;;;;;;;3.20;2.75;;;23.40;49.60;;;24.89;40.49;97355.38;5082637;28;20035;-44
2023/06/19 04:45:48;;;;;;;3.92;2.92;;;23.30;49.60;;;24.85;40.67;97354.25;5055851;28;20123;-44
2023/06/19 04:48:16;;;;;;;3.75;2.95;;;23.40;50.00;;;24.84;40.86;97353.44;5082099;28;20507;-44
2023/06/19 04:50:43;;;;;;;3.63;3.25;;;23.30;50.30;;;24.86;41.00;97364.88;5082513;28;20052;-45
2023/06/19 04:53:11;;;;;;;3.55;2.83;;;23.30;51.00;;;24.85;41.20;97365.94;5079400;28;20052;-47
2023/06/19 04:55:39;;;;;;;3.85;2.75;;;23.30;50.60;;;24.78;41.44;97365.38;5052776;28;20052;-44
2023/06/19 04:58:07;;;;;;;3.47;2.80;;;23.20;51.00;;;24.73;41.55;97363.41;5080447;28;20049;-44
2023/06/19 05:00:35;;;;;;;2.97;2.53;;;23.20;51.00;;;24.71;41.72;97371.00;5082290;28;20036;-44
2023/06/19 05:03:03;;;;;;;3.25;2.80;;;23.20;51.20;;;24.72;41.93;97363.69;5080416;28;20043;-44
2023/06/19 05:05:30;;;;;;;3.15;2.20;;;23.20;51.50;;;24.75;41.59;97372.13;5078810;28;20036;-44
2023/06/19 05:07:59;;;;;;;3.00;2.65;;;23.30;51.20;;;24.72;41.89;97361.78;5079599;28;20044;-44
2023/06/19 05:10:27;;;;;;;3.45;3.13;;;23.30;51.30;;;24.74;41.71;97366.97;5081769;28;20522;-44
2023/06/19 05:12:54;;;;;;;3.22;2.85;;;23.30;51.80;;;24.74;41.62;97364.25;5081606;28;20052;-44
2023/06/19 05:15:22;;;;;;;3.38;2.75;;;23.30;51.20;;;24.77;41.93;97358.25;5082254;28;20492;-45
2023/06/19 05:17:49;;;;;;;3.83;2.88;;;23.40;51.10;;;24.82;41.71;97371.13;5031414;28;20056;-45
2023/06/19 05:20:18;;;;;;;2.85;2.25;;;23.40;50.70;;;24.85;41.66;97370.56;5069778;28;20036;-44
2023/06/19 05:22:45;;;;;;;4.00;3.00;;;23.50;50.80;;;24.88;41.63;97375.50;5086306;28;20044;-44
2023/06/19 05:25:13;;;;;;;3.47;2.55;;;23.50;50.80;;;24.92;41.77;97379.34;5082709;28;20044;-44
2023/06/19 05:27:40;;;;;;;4.13;2.92;;;23.60;50.60;;;24.95;41.96;97376.09;5080389;28;20049;-44
2023/06/19 05:30:09;;;;;;;3.30;3.00;;;23.60;50.70;;;24.95;41.97;97382.38;5084649;28;20048;-44
2023/06/19 05:32:36;;;;;;;3.65;2.85;;;23.60;51.00;;;24.98;41.98;97380.22;5085795;28;20051;-45
2023/06/19 05:35:05;;;;;;;3.33;2.70;;;23.60;51.00;;;25.01;42.03;97394.13;5083817;28;20075;-43
2023/06/19 05:37:33;;;;;;;3.03;2.72;;;23.60;51.30;;;25.05;42.04;97395.25;5081721;28;20499;-44
2023/06/19 05:40:00;;;;;;;2.72;2.53;;;23.60;50.90;;;24.96;42.25;97400.34;5087905;28;20052;-45
2023/06/19 05:42:28;;;;;;;2.78;2.42;;;23.60;51.20;;;25.00;42.09;97400.66;5082210;28;20044;-44
2023/06/19 05:44:55;;;;;;;3.25;2.95;;;23.60;51.30;;;25.03;42.12;97394.69;5082398;28;20500;-44
2023/06/19 05:47:25;;;;;;;3.55;3.05;;;23.60;51.00;;;25.07;42.07;97395.81;5062780;28;20518;-44
2023/06/19 05:49:53;;;;;;;4.20;2.80;;;23.70;51.10;;;25.03;41.89;97402.03;5082096;28;20389;-44
2023/06/19 05:52:21;;;;;;;4.53;2.80;;;23.70;51.10;;;25.02;42.17;97408.56;5066521;28;20047;-44
2023/06/19 05:54:48;;;;;;;2.95;2.65;;;23.60;51.60;;;25.11;42.15;97407.00;5081915;28;20049;-44
2023/06/19 05:57:20;;;;;;;4.18;2.80;;;23.70;51.60;;;25.13;42.75;97410.28;5084408;28;20502;-44
2023/06/19 05:59:48;;;;;;;3.05;2.75;;;23.70;52.30;;;25.13;42.48;97408.38;5085386;28;20051;-43
2023/06/19 06:02:19;;;;;;;3.60;2.67;;;23.80;52.00;;;25.20;42.56;97410.06;5082086;28;20045;-45
2023/06/19 06:04:47;;;;;;;4.78;2.97;;;23.80;52.00;;;25.22;42.62;97405.16;5055109;28;20059;-44
2023/06/19 06:07:15;;;;;;;3.78;3.25;;;23.90;51.80;;;25.26;42.41;97399.00;5083710;28;20044;-45
2023/06/19 06:09:43;;;;;;;3.92;3.10;;;24.00;51.70;;;25.35;42.47;97407.47;5085172;28;20522;-44
2023/06/19 06:12:11;;;;;;;4.82;3.20;;;24.00;51.40;;;25.42;42.18;97401.81;5082939;28;20400;-44
2023/06/19 06:14:41;;;;;;;3.92;3.30;;;24.00;51.30;;;25.48;41.99;97404.28;5081536;28;20055;-43
2023/06/19 06:17:09;;;;;;;3.63;2.97;;;24.10;51.20;;;25.43;41.93;97404.25;5056722;28;20048;-44
2023/06/19 06:19:38;;;;;;;3.28;2.95;;;24.20;50.80;;;25.41;42.27;97419.22;5084749;28;20063;-43
2023/06/19 06:22:06;;;;;;;3.92;3.00;;;24.30;51.10;;;25.44;42.19;97410.53;5083493;28;20048;-44
2023/06/19 06:24:34;;;;;;;3.83;3.42;;;24.20;50.90;;;25.44;42.37;97411.34;5078435;28;20480;-44
2023/06/19 06:27:02;;;;;;;4.88;3.30;;;24.20;51.20;;;25.50;42.10;97428.56;5080847;28;20055;-43
2023/06/19 06:29:30;;;;;;;4.60;3.40;;;24.10;51.40;;;25.52;42.14;97431.84;5084711;28;20040;-44
2023/06/19 06:32:06;;;;;;;5.25;3.05;;;24.00;51.40;;;25.53;42.06;97433.47;5075350;28;20075;-44
2023/06/19 06:34:34;;;;;;;5.28;3.28;;;24.00;51.70;;;25.55;41.74;97436.75;5072750;28;20055;-45
2023/06/19 06:37:02;;;;;;;6.05;3.13;;;24.00;51.30;;;25.53;41.99;97445.22;5055201;28;20059;-45
2023/06/19 06:39:33;;;;;;;4.70;3.38;;;24.10;51.60;;;25.54;42.78;97454.19;5044596;28;20059;-44
2023/06/19 06:42:01;;;;;;;3.88;3.28;;;24.10;52.20;;;25.53;42.83;97461.56;5080972;28;20048;-45
2023/06/19 06:44:29;;;;;;;3.65;3.17;;;24.20;52.20;;;25.59;42.69;97469.75;5084364;28;20264;-44
2023/06/19 06:46:57;;;;;;;4.63;3.63;;;24.20;52.20;;;25.60;42.55;97465.97;5084308;28;20044;-43
2023/06/19 06:49:24;;;;;;;3.47;3.00;;;24.30;52.30;;;25.54;42.71;97457.75;5075764;28;20032;-43
2023/06/19 06:51:52;;;;;;;4.60;3.78;;;24.20;52.00;;;25.58;42.83;97470.84;5084872;28;20408;-43
2023/06/19 06:54:22;;;;;;;3.92;3.28;;;24.30;52.50;;;25.59;43.24;97467.03;5081592;28;20037;-44
2023/06/19 06:56:52;;;;;;;3.78;3.10;;;24.30;52.50;;;25.56;43.03;97464.84;5080281;28;20044;-44
2023/06/19 06:59:20;;;;;;;4.00;3.60;;;24.20;52.80;;;25.52;43.38;97470.00;5083289;28;20045;-44
2023/06/19 07:01:47;;;;;;;5.00;3.75;;;24.10;53.10;;;25.47;43.40;97465.31;5083847;28;20442;-43
2023/06/19 07:04:15;;;;;;;4.63;3.47;;;24.10;53.40;;;25.47;43.52;97469.94;5081979;28;20052;-45
2023/06/19 07:06:42;;;;;;;5.78;3.30;;;24.00;53.60;;;25.42;43.78;97478.09;5054125;28;20431;-45
2023/06/19 07:09:11;;;;;;;7.18;3.30;;;24.00;53.60;;;25.41;43.72;97487.34;5054546;28;20045;-44
2023/06/19 07:11:38;;;;;;;3.88;3.00;;;24.00;53.70;;;25.39;43.76;97487.59;5083839;28;20055;-44
2023/06/19 07:14:06;;;;;;;4.05;3.50;;;24.00;53.60;;;25.39;43.60;97476.72;5083138;28;20044;-44
2023/06/19 07:16:34;;;;;;;4.25;3.10;;;24.00;53.50;;;25.42;43.70;97486.28;5054085;28;20051;-43
2023/06/19 07:19:01;;;;;;;11.73;3.95;;;24.00;53.70;;;25.44;43.93;97482.19;5079722;28;20516;-47
2023/06/19 07:21:30;;;;;;;4.47;3.78;;;24.00;53.90;;;25.49;43.77;97479.53;5037457;28;20037;-45
2023/06/19 07:23:58;;;;;;;4.15;3.53;;;24.00;54.10;;;25.54;43.71;97479.53;5054067;28;20417;-43
2023/06/19 07:26:26;;;;;;;3.72;3.17;;;24.10;53.80;;;25.62;43.90;97480.97;5053719;28;20037;-46
2023/06/19 07:28:54;;;;;;;5.95;3.45;;;24.20;53.80;;;25.64;43.87;97481.50;5078896;28;20531;-46
2023/06/19 07:31:21;;;;;;;3.85;3.13;;;24.30;53.50;;;25.69;43.62;97494.38;5082245;28;20052;-46
2023/06/19 07:33:49;;;;;;;3.47;3.17;;;24.30;53.10;;;25.76;43.56;97486.78;5083460;28;20089;-47
2023/06/19 07:36:17;;;;;;;3.70;3.30;;;24.50;53.10;;;25.85;43.35;97492.56;5063323;28;20044;-48
2023/06/19 07:38:45;;;;;;;3.53;3.05;;;24.60;52.70;;;25.94;42.95;97501.94;5078125;28;20057;-45
2023/06/19 07:41:13;;;;;;;4.28;3.15;;;24.70;52.50;;;26.01;42.83;97501.69;5080717;28;20067;-46
2023/06/19 07:43:40;;;;;;;4.03;3.70;;;24.70;51.80;;;26.05;42.80;97502.78;5060266;28;20511;-46
2023/06/19 07:46:09;;;;;;;4.63;3.42;;;24.80;51.70;;;26.08;42.81;97497.63;5079786;28;20044;-45
2023/06/19 07:48:37;;;;;;;3.65;3.35;;;24.80;52.00;;;26.12;42.94;97498.72;5082626;28;20491;-46
2023/06/19 07:51:04;;;;;;;5.10;3.45;;;24.80;51.80;;;26.19;42.67;97506.69;5083122;28;20044;-47
2023/06/19 07:53:32;;;;;;;5.95;3.70;;;25.00;51.60;;;26.21;42.69;97506.41;5045532;28;20044;-48
2023/06/19 07:56:00;;;;;;;3.83;3.08;;;25.00;51.70;;;26.26;42.49;97509.16;5078696;28;20070;-46
2023/06/19 07:58:27;;;;;;;3.70;3.30;;;25.00;51.40;;;26.36;42.17;97500.22;5080013;28;20496;-47
2023/06/19 08:00:55;;;;;;;3.33;3.03;;;25.10;50.90;;;26.43;41.64;97512.53;5079726;28;20041;-48
2023/06/19 08:03:24;;;;;;;3.42;3.13;;;25.20;50.20;;;26.47;41.16;97501.88;5081743;28;20037;-47
2023/06/19 08:05:52;;;;;;;3.33;2.90;;;25.30;49.70;;;26.49;40.39;97500.53;5058740;28;20048;-47
2023/06/19 08:08:21;;;;;;;3.22;2.92;;;25.10;48.50;;;26.50;39.88;97493.16;5080371;28;20044;-45
2023/06/19 08:10:49;;;;;;;3.38;3.00;;;25.10;47.90;;;26.56;39.79;97494.00;5082584;28;20040;-46
2023/06/19 08:13:16;;;;;;;3.50;3.20;;;25.20;48.10;;;26.56;39.41;97492.09;5080342;28;20048;-47
2023/06/19 08:15:45;;;;;;;3.83;3.30;;;25.20;47.80;;;26.63;39.92;97497.31;5079342;28;20044;-45
2023/06/19 08:18:12;;;;;;;3.47;3.17;;;25.30;47.80;;;26.64;39.59;97488.88;5079074;28;20041;-46
2023/06/19 08:20:40;;;;;;;4.13;3.72;;;25.30;47.50;;;26.63;40.12;97495.41;5082586;28;20415;-45
2023/06/19 08:23:08;;;;;;;3.63;2.90;;;25.40;47.90;;;26.69;39.79;97491.59;5056069;28;20053;-47
2023/06/19 08:25:35;;;;;;;3.35;3.05;;;25.40;47.80;;;26.81;40.35;97496.00;5060423;28;20041;-46
2023/06/19 08:28:03;;;;;;;3.55;3.25;;;25.60;48.10;;;26.91;40.07;97496.84;5077691;28;20037;-44
2023/06/19 08:30:31;;;;;;;3.22;2.80;;;25.80;47.90;;;27.05;39.79;97496.34;5081918;28;20045;-48
2023/06/19 08:32:58;;;;;;;3.95;3.55;;;25.90;47.20;;;27.18;39.73;97498.53;5082455;28;20071;-44
2023/06/19 08:35:26;;;;;;;3.60;3.30;;;26.10;47.40;;;27.30;39.47;97490.09;5072679;28;20488;-44
2023/06/19 08:37:54;;;;;;;4.25;3.85;;;26.20;46.80;;;27.38;39.08;97477.78;5068345;28;20041;-45
2023/06/19 08:40:22;;;;;;;4.18;3.78;;;26.30;46.60;;;27.45;39.61;97487.38;5064509;28;20079;-44
2023/06/19 08:42:51;;;;;;;5.32;3.78;;;26.40;46.70;;;27.51;39.33;97479.97;5077598;28;20504;-47
2023/06/19 08:45:20;;;;;;;3.50;3.20;;;26.40;46.20;;;27.48;38.84;97488.72;5079548;28;20055;-47
2023/06/19 08:47:49;;;;;;;3.67;3.35;;;26.30;46.60;;;27.24;39.64;97486.53;5073042;28;20146;-45
2023/06/19 08:50:16;;;;;;;4.28;3.45;;;26.20;47.20;;;27.15;39.82;97496.34;5059810;28;20060;-45
2023/06/19 08:52:44;;;;;;;4.40;4.00;;;26.10;47.70;;;27.16;40.18;97492.53;5083481;28;20052;-46
2023/06/19 08:55:12;;;;;;;4.25;3.85;;;26.00;47.90;;;27.13;40.14;97495.78;5055702;28;20551;-46
2023/06/19 08:57:40;;;;;;;4.10;3.70;;;25.90;47.50;;;27.19;39.91;97494.69;5067006;28;20487;-44
2023/06/19 09:00:10;;;;;;;5.22;3.85;;;26.00;47.90;;;27.16;39.55;97488.94;5069450;28;20056;-47
2023/06/19 09:02:42;;;;;;;3.90;3.22;;;25.90;47.30;;;27.14;40.06;97494.69;5078733;28;20041;-40
2023/06/19 09:05:18;;;;;;;3.85;3.35;;;25.80;47.80;;;27.11;40.44;97500.72;5079824;28;20040;-40
2023/06/19 09:07:58;;;;;;;4.03;3.63;;;25.80;48.30;;;27.11;40.63;97495.25;5066585;28;20293;-40
2023/06/19 09:10:26;;;;;;;7.78;4.05;;;25.80;48.80;;;27.06;40.79;97497.97;5079787;28;20048;-40
2023/06/19 09:13:03;;;;;;;5.25;3.95;;;25.80;48.60;;;27.10;40.63;97490.84;5079054;28;20048;-40
2023/06/19 09:15:36;;;;;;;4.78;4.30;;;25.90;48.50;;;26.92;40.32;97503.94;5082759;28;20072;-39
2023/06/19 09:18:12;;;;;;;4.35;3.95;;;25.70;48.40;;;26.92;40.54;97489.47;5058098;28;20063;-40
2023/06/19 09:20:47;;;;;;;4.57;4.07;;;25.70;48.70;;;27.00;40.45;97490.84;5030077;28;20079;-40
2023/06/19 09:23:17;;;;;;;4.55;4.15;;;25.80;48.30;;;27.04;40.27;97491.94;5053134;28;20424;-40
2023/06/19 09:25:49;;;;;;;4.13;3.58;;;25.80;48.30;;;27.13;40.07;97492.25;5048950;28;20059;-40
2023/06/19 09:28:18;;;;;;;4.25;3.78;;;25.90;47.80;;;27.20;40.46;97490.03;5070372;28;20041;-40
2023/06/19 09:30:59;;;;;;;4.40;3.60;;;26.00;48.30;;;27.17;40.58;97483.22;5069840;28;20037;-40
2023/06/19 09:33:30;;;;;;;4.43;3.55;;;26.10;48.90;;;27.16;40.93;97481.59;5077700;28;20048;-40
2023/06/19 09:36:01;;;;;;;4.25;3.80;;;26.10;48.60;;;27.19;40.17;97482.94;5081843;28;20426;-40
2023/06/19 09:38:36;;;;;;;4.50;3.92;;;26.10;48.40;;;27.15;40.63;97490.06;5080307;28;20663;-40
2023/06/19 09:41:06;;;;;;;4.43;3.58;;;26.10;48.30;;;27.08;40.54;97480.22;5049780;28;20044;-39
2023/06/19 09:43:46;;;;;;;3.47;3.10;;;25.90;48.50;;;27.03;41.43;97482.94;5077726;28;20067;-39
2023/06/19 09:46:18;;;;;;;4.38;3.75;;;26.00;49.30;;;27.11;40.91;97482.38;5064974;28;20091;-40
2023/06/19 09:48:50;;;;;;;4.25;3.38;;;26.20;48.70;;;27.07;41.01;97489.50;5047960;28;20041;-39
2023/06/19 09:51:30;;;;;;;4.80;3.45;;;26.20;48.50;;;27.04;40.87;97489.22;5054922;28;20036;-39
2023/06/19 09:54:00;;;;;;;4.20;3.20;;;26.10;48.20;;;26.66;41.24;97494.88;5047513;28;20041;-40
2023/06/19 09:56:28;;;;;;;5.38;3.42;;;25.80;48.80;;;26.51;42.26;97495.63;5045413;28;20045;-40
2023/06/19 09:59:00;;;;;;;4.15;3.75;;;25.50;50.00;;;26.65;41.91;97486.97;5054983;28;20052;-40
2023/06/19 10:01:30;;;;;;;4.80;4.40;;;25.60;49.80;;;26.64;41.58;97479.88;5054144;28;20048;-40
2023/06/19 10:04:10;;;;;;;4.35;3.95;;;25.60;49.40;;;26.66;41.61;97486.69;5055079;28;20044;-40
2023/06/19 10:06:46;;;;;;;5.03;4.53;;;25.70;49.80;;;26.70;41.62;97484.25;5055223;28;20044;-40
2023/06/19 10:09:18;;;;;;;5.00;4.47;;;25.70;49.50;;;26.65;42.35;97492.41;5064499;28;20036;-39
2023/06/19 10:11:52;;;;;;;5.55;4.15;;;25.60;50.20;;;26.84;42.05;97488.09;5067690;28;20408;-40
2023/06/19 10:14:22;;;;;;;3.85;3.45;;;25.70;50.40;;;26.81;41.95;97483.19;5072683;28;20044;-39
2023/06/19 10:16:49;;;;;;;4.20;3.80;;;25.80;49.80;;;26.97;41.16;97486.75;5061958;28;20503;-39
2023/06/19 10:19:22;;;;;;;4.78;4.28;;;25.90;48.90;;;26.98;41.45;97488.38;5071334;28;20063;-39
2023/06/19 10:21:54;;;;;;;6.88;4.45;;;26.00;49.40;;;27.11;41.44;97489.78;5064161;28;20040;-39
2023/06/19 10:24:25;;;;;;;5.28;4.53;;;26.10;49.40;;;27.22;40.81;97485.97;5070388;28;20047;-40
2023/06/19 10:27:02;;;;;;;4.57;3.92;;;26.20;48.80;;;27.33;41.19;97484.06;5068670;28;20043;-39